Time;durP1;ratioP1;P1;durP2;ratioP2;P2;SDS_P1;SDS_P2;PMS_P1;PMS_P2;Temp;Humidity;BMP_temperature;BMP_pressure;BME280_temperature;BME280_humidity;BME280_pressure;Samples;Min_cycle;Max_cycle;Signal;HPM_P1;HPM_P2
2022/05/18 00:00:44;;;;;;;2.90;1.23;;;22.50;63.50;;;;;;5071920;28;20048;-53
2022/05/18 00:03:10;;;;;;;4.03;1.15;;;22.40;63.40;;;;;;5071867;28;20044;-54
2022/05/18 00:05:37;;;;;;;2.35;1.10;;;22.40;63.40;;;;;;5072395;28;20387;-54
2022/05/18 00:08:03;;;;;;;2.75;0.90;;;22.40;63.50;;;;;;5071923;28;20450;-54
2022/05/18 00:10:28;;;;;;;4.07;1.30;;;22.50;63.50;;;;;;5071720;28;20052;-54
2022/05/18 00:12:54;;;;;;;3.05;0.90;;;22.40;63.40;;;;;;5072246;28;20045;-54
2022/05/18 00:15:21;;;;;;;2.33;0.90;;;22.40;63.40;;;;;;5072251;28;20068;-54
2022/05/18 00:17:47;;;;;;;3.30;1.25;;;22.40;63.40;;;;;;5071381;28;20091;-54
2022/05/18 00:20:13;;;;;;;3.47;1.17;;;22.40;64.00;;;;;;5073549;28;20080;-54
2022/05/18 00:22:52;;;;;;;1.58;0.85;;;22.40;63.40;;;;;;5078928;28;20128;-54
2022/05/18 00:25:19;;;;;;;3.42;1.10;;;22.40;63.30;;;;;;5078051;28;20055;-54
2022/05/18 00:27:44;;;;;;;3.15;0.80;;;22.40;63.30;;;;;;5078865;28;20044;-54
2022/05/18 00:30:11;;;;;;;3.40;1.23;;;22.40;63.40;;;;;;5078775;28;20047;-54
2022/05/18 00:32:36;;;;;;;2.83;1.00;;;22.40;63.30;;;;;;5078271;28;20123;-54
2022/05/18 00:35:02;;;;;;;1.85;1.10;;;22.40;63.40;;;;;;5078627;28;20152;-55
2022/05/18 00:37:28;;;;;;;2.60;1.10;;;22.40;63.30;;;;;;5078140;28;20135;-54
2022/05/18 00:39:53;;;;;;;2.97;1.35;;;22.40;63.30;;;;;;5077550;28;20127;-54
2022/05/18 00:42:19;;;;;;;3.13;1.27;;;22.40;63.30;;;;;;5078772;28;20512;-54
2022/05/18 00:44:45;;;;;;;2.90;1.25;;;22.40;63.30;;;;;;5078163;28;20440;-55
2022/05/18 00:47:11;;;;;;;2.53;1.02;;;22.40;63.30;;;;;;5078030;28;20124;-54
2022/05/18 00:49:37;;;;;;;1.92;0.95;;;22.40;63.30;;;;;;5078947;28;20040;-53
2022/05/18 00:52:03;;;;;;;2.90;0.93;;;22.40;63.30;;;;;;5060788;28;20089;-54
2022/05/18 00:54:29;;;;;;;1.60;0.98;;;22.40;63.30;;;;;;5059909;28;20488;-54
2022/05/18 00:57:10;;;;;;;2.70;1.10;;;22.40;63.20;;;;;;5076721;28;20438;-54
2022/05/18 00:59:59;;;;;;;2.63;1.10;;;22.40;63.20;;;;;;5077742;28;20059;-54
2022/05/18 01:02:27;;;;;;;1.83;1.10;;;22.40;63.20;;;;;;5067138;28;20097;-54
2022/05/18 01:04:53;;;;;;;2.75;1.00;;;22.40;63.20;;;;;;5077336;28;20044;-54
2022/05/18 01:07:21;;;;;;;1.35;1.17;;;22.40;63.20;;;;;;5077704;28;20545;-54
2022/05/18 01:09:47;;;;;;;2.93;0.90;;;22.40;63.20;;;;;;5060478;28;20052;-54
2022/05/18 01:12:14;;;;;;;3.55;1.05;;;22.40;63.20;;;;;;5078489;28;20338;-54
2022/05/18 01:15:07;;;;;;;1.52;1.00;;;22.30;63.10;;;;;;5077603;28;20040;-55
2022/05/18 01:17:34;;;;;;;1.92;0.90;;;22.40;63.10;;;;;;5076423;28;20048;-52
2022/05/18 01:20:02;;;;;;;3.30;1.23;;;22.40;63.20;;;;;;5076996;28;20079;-54
2022/05/18 01:22:57;;;;;;;3.47;1.15;;;22.30;63.10;;;;;;5077792;28;20080;-54
2022/05/18 01:25:31;;;;;;;1.30;1.00;;;22.30;63.00;;;;;;5062415;28;20047;-54
2022/05/18 01:27:57;;;;;;;2.17;1.02;;;22.30;63.00;;;;;;5077191;28;20076;-54
2022/05/18 01:30:23;;;;;;;2.38;1.00;;;22.30;63.10;;;;;;5078335;28;20076;-54
2022/05/18 01:32:51;;;;;;;2.45;1.10;;;22.30;63.10;;;;;;5075434;28;20128;-55
2022/05/18 01:35:19;;;;;;;3.35;1.23;;;22.30;63.00;;;;;;5074339;28;20051;-53
2022/05/18 01:37:45;;;;;;;1.88;0.90;;;22.30;63.10;;;;;;5074687;28;20468;-54
2022/05/18 01:40:19;;;;;;;2.08;0.95;;;22.30;63.00;;;;;;5075073;28;20549;-54
2022/05/18 01:42:54;;;;;;;2.03;0.80;;;22.30;63.70;;;;;;5056734;28;20067;-54
2022/05/18 01:45:19;;;;;;;1.55;0.70;;;22.30;63.00;;;;;;5057113;28;20044;-54
2022/05/18 01:47:48;;;;;;;3.55;1.10;;;22.30;63.00;;;;;;5074872;28;20123;-54
2022/05/18 01:50:14;;;;;;;2.28;1.00;;;22.30;63.00;;;;;;5074262;28;20044;-53
2022/05/18 01:52:40;;;;;;;2.58;0.98;;;22.30;63.00;;;;;;5056767;28;20526;-55
2022/05/18 01:55:06;;;;;;;1.90;0.90;;;22.30;63.00;;;;;;5074591;28;20041;-54
2022/05/18 01:57:33;;;;;;;2.05;0.95;;;22.30;62.90;;;;;;5073928;28;20438;-54
2022/05/18 01:59:58;;;;;;;1.65;0.90;;;22.30;62.90;;;;;;5074399;28;20208;-54
2022/05/18 02:02:24;;;;;;;2.33;1.00;;;22.30;62.90;;;;;;5073965;28;20123;-55
2022/05/18 02:04:49;;;;;;;1.60;0.90;;;22.30;62.90;;;;;;5072798;28;20056;-54
2022/05/18 02:07:15;;;;;;;1.90;0.88;;;22.30;62.90;;;;;;5074032;28;20044;-54
2022/05/18 02:09:41;;;;;;;1.63;0.80;;;22.30;63.00;;;;;;5073303;28;20045;-54
2022/05/18 02:12:07;;;;;;;1.60;1.00;;;22.20;62.90;;;;;;5073410;28;20040;-54
2022/05/18 02:14:33;;;;;;;1.98;1.13;;;22.30;62.90;;;;;;5073985;28;20437;-54
2022/05/18 02:16:58;;;;;;;2.25;1.10;;;22.30;62.90;;;;;;5073101;28;20131;-53
2022/05/18 02:19:24;;;;;;;2.33;1.02;;;22.20;62.80;;;;;;5074445;28;20495;-55
2022/05/18 02:21:50;;;;;;;1.85;1.10;;;22.20;62.90;;;;;;5074198;28;20040;-53
2022/05/18 02:24:16;;;;;;;2.88;1.05;;;22.20;62.80;;;;;;5073488;28;20137;-52
2022/05/18 02:26:41;;;;;;;2.20;0.82;;;22.20;62.80;;;;;;5072678;28;20079;-54
2022/05/18 02:29:07;;;;;;;1.67;1.10;;;22.20;62.80;;;;;;5074248;28;20114;-55
2022/05/18 02:31:32;;;;;;;2.53;0.80;;;22.20;62.80;;;;;;5073424;28;20098;-54
2022/05/18 02:33:58;;;;;;;2.13;1.00;;;22.20;62.80;;;;;;5074003;28;20516;-54
2022/05/18 02:36:23;;;;;;;1.75;0.80;;;22.20;62.70;;;;;;5074081;28;20049;-54
2022/05/18 02:38:50;;;;;;;2.13;1.05;;;22.20;62.70;;;;;;5073004;28;20468;-53
2022/05/18 02:41:17;;;;;;;1.85;1.00;;;22.20;62.70;;;;;;5074145;28;20052;-54
2022/05/18 02:43:42;;;;;;;2.30;1.45;;;22.20;62.70;;;;;;5071422;28;20044;-54
2022/05/18 02:46:09;;;;;;;1.63;1.00;;;22.20;62.70;;;;;;5073082;28;20044;-54
2022/05/18 02:48:35;;;;;;;3.13;1.20;;;22.20;62.70;;;;;;5073783;28;20041;-54
2022/05/18 02:51:00;;;;;;;2.33;1.00;;;22.20;62.70;;;;;;5073373;28;20048;-54
2022/05/18 02:53:26;;;;;;;2.40;0.98;;;22.20;62.70;;;;;;5072607;28;20037;-54
2022/05/18 02:56:06;;;;;;;1.55;0.88;;;22.20;62.70;;;;;;5073480;28;20055;-53
2022/05/18 02:58:51;;;;;;;1.25;0.73;;;22.20;62.70;;;;;;5073608;28;20468;-54
2022/05/18 03:01:34;;;;;;;2.35;0.90;;;22.20;62.60;;;;;;5073567;28;20087;-54
2022/05/18 03:04:00;;;;;;;1.63;1.10;;;22.20;62.60;;;;;;5072978;28;20090;-54
2022/05/18 03:06:26;;;;;;;2.42;1.05;;;22.20;62.70;;;;;;5072525;28;20040;-54
2022/05/18 03:08:51;;;;;;;2.45;1.08;;;22.20;62.60;;;;;;5073255;28;20040;-54
2022/05/18 03:11:18;;;;;;;2.45;1.00;;;22.20;62.60;;;;;;5072291;28;20044;-54
2022/05/18 03:13:43;;;;;;;2.03;0.98;;;22.20;62.60;;;;;;5072123;28;20090;-55
2022/05/18 03:16:09;;;;;;;1.40;0.88;;;22.10;63.10;;;;;;5072670;28;20064;-54
2022/05/18 03:18:34;;;;;;;1.30;0.85;;;22.10;62.50;;;;;;5073181;28;20484;-55
2022/05/18 03:23:44;;;;;;;1.70;0.90;;;22.10;62.50;;;;;;5073078;28;20053;-55
2022/05/18 03:26:11;;;;;;;2.03;0.80;;;22.10;62.50;;;;;;5073111;28;20044;-54
2022/05/18 03:28:37;;;;;;;1.00;0.63;;;22.10;62.50;;;;;;5072390;28;20080;-55
2022/05/18 03:31:03;;;;;;;1.90;1.00;;;22.10;62.50;;;;;;5072379;28;20039;-55
2022/05/18 03:33:28;;;;;;;2.90;1.10;;;22.10;62.50;;;;;;5072824;28;20123;-55
2022/05/18 03:35:54;;;;;;;1.85;0.90;;;22.10;62.50;;;;;;5071975;28;20041;-54
2022/05/18 03:38:20;;;;;;;1.52;0.73;;;22.10;62.50;;;;;;5072815;28;20047;-54
2022/05/18 03:40:45;;;;;;;3.08;1.40;;;22.10;62.50;;;;;;5072415;28;20045;-54
2022/05/18 03:43:11;;;;;;;1.55;0.90;;;22.10;62.40;;;;;;5071932;28;20076;-54
2022/05/18 03:45:37;;;;;;;1.80;1.00;;;22.10;62.50;;;;;;5071969;28;20468;-54
2022/05/18 03:48:03;;;;;;;0.80;0.60;;;22.10;62.40;;;;;;5071499;28;20040;-54
2022/05/18 03:50:28;;;;;;;1.80;1.08;;;22.10;62.40;;;;;;5072552;28;20504;-54
2022/05/18 03:52:57;;;;;;;1.80;1.05;;;22.10;62.40;;;;;;5072593;28;20044;-54
2022/05/18 03:55:23;;;;;;;1.83;0.95;;;22.10;62.40;;;;;;5071499;28;20075;-54
2022/05/18 03:57:49;;;;;;;1.13;0.95;;;22.10;62.40;;;;;;5072189;28;20468;-53
2022/05/18 04:00:15;;;;;;;1.83;1.10;;;22.10;62.40;;;;;;5072133;28;20062;-53
2022/05/18 04:02:40;;;;;;;1.65;0.88;;;22.10;62.40;;;;;;5071683;28;20037;-54
2022/05/18 04:05:08;;;;;;;0.90;0.70;;;22.10;62.40;;;;;;5071728;28;20041;-54
2022/05/18 04:07:33;;;;;;;1.80;0.95;;;22.10;62.40;;;;;;5071890;28;20068;-54
2022/05/18 04:09:59;;;;;;;1.45;0.90;;;22.10;62.40;;;;;;5071387;28;20046;-52
2022/05/18 04:12:25;;;;;;;1.08;0.80;;;22.00;62.30;;;;;;5072540;28;20032;-54
2022/05/18 04:14:51;;;;;;;1.50;0.90;;;22.10;62.40;;;;;;5071410;28;20098;-54
2022/05/18 04:17:17;;;;;;;1.20;0.80;;;22.00;62.30;;;;;;5071439;28;20052;-53
2022/05/18 04:19:42;;;;;;;1.80;0.80;;;22.00;62.30;;;;;;5072045;28;20048;-53
2022/05/18 04:22:08;;;;;;;1.45;0.85;;;22.00;62.30;;;;;;5072340;28;20049;-53
2022/05/18 04:24:33;;;;;;;1.50;0.90;;;22.00;62.40;;;;;;5070386;28;20075;-54
2022/05/18 04:26:59;;;;;;;1.58;0.90;;;22.00;62.50;;;;;;5072218;28;20044;-54
2022/05/18 04:29:24;;;;;;;2.53;0.90;;;22.00;62.50;;;;;;5071902;28;20477;-55
2022/05/18 04:31:50;;;;;;;1.10;0.75;;;22.00;62.50;;;;;;5071329;28;20040;-55
2022/05/18 04:34:16;;;;;;;1.98;1.13;;;22.10;62.50;;;;;;5072283;28;20036;-54
2022/05/18 04:36:43;;;;;;;2.55;1.00;;;22.10;62.50;;;;;;5071983;28;20083;-54
2022/05/18 04:39:08;;;;;;;1.50;0.80;;;22.10;62.50;;;;;;5071559;28;20048;-54
2022/05/18 04:41:34;;;;;;;2.35;0.90;;;22.10;62.50;;;;;;5072303;28;20048;-54
2022/05/18 04:43:59;;;;;;;1.20;0.70;;;22.10;62.50;;;;;;5071588;28;20044;-54
2022/05/18 04:46:25;;;;;;;2.75;1.00;;;22.10;62.40;;;;;;5071308;28;20429;-55
2022/05/18 04:48:50;;;;;;;1.45;0.80;;;22.10;62.50;;;;;;5071996;28;20603;-54
2022/05/18 04:51:16;;;;;;;1.98;1.20;;;22.10;62.40;;;;;;5071827;28;20496;-54
2022/05/18 04:53:41;;;;;;;1.98;0.90;;;22.20;62.50;;;;;;5071462;28;20055;-55
2022/05/18 04:56:07;;;;;;;2.63;1.10;;;22.20;62.50;;;;;;5071718;28;20043;-53
2022/05/18 04:58:33;;;;;;;2.03;1.10;;;22.20;62.40;;;;;;5070920;28;20076;-53
2022/05/18 05:01:01;;;;;;;1.60;0.95;;;22.20;62.50;;;;;;5071661;28;20090;-54
2022/05/18 05:03:27;;;;;;;1.80;0.95;;;22.20;62.50;;;;;;5070906;28;20534;-54
2022/05/18 05:05:53;;;;;;;1.73;0.93;;;22.20;62.50;;;;;;5070805;28;20049;-57
2022/05/18 05:08:19;;;;;;;6.28;4.35;;;22.20;62.50;;;;;;5074047;28;20058;-57
2022/05/18 05:10:44;;;;;;;8.57;5.00;;;22.10;61.90;;;;;;5075541;28;20044;-57
2022/05/18 05:13:10;;;;;;;7.93;5.07;;;22.10;62.20;;;;;;5075019;28;20044;-57
2022/05/18 05:15:36;;;;;;;7.95;5.15;;;22.00;61.30;;;;;;5075417;28;20052;-56
2022/05/18 05:18:01;;;;;;;9.30;4.88;;;21.90;61.30;;;;;;5075255;28;20041;-56
2022/05/18 05:20:27;;;;;;;8.98;5.25;;;21.90;61.40;;;;;;5074066;28;20523;-57
2022/05/18 05:22:52;;;;;;;10.02;5.75;;;21.80;61.60;;;;;;5075089;28;20434;-57
2022/05/18 05:25:18;;;;;;;9.23;5.35;;;21.70;61.80;;;;;;5075499;28;20412;-57
2022/05/18 05:27:44;;;;;;;8.55;5.47;;;21.70;62.00;;;;;;5074497;28;20545;-57
2022/05/18 05:30:12;;;;;;;14.80;6.80;;;21.60;62.20;;;;;;5075401;28;20399;-57
2022/05/18 05:32:37;;;;;;;12.48;6.95;;;21.60;62.40;;;;;;5075425;28;20127;-57
2022/05/18 05:35:04;;;;;;;15.52;7.28;;;21.50;62.40;;;;;;5074282;28;20132;-57
2022/05/18 05:37:29;;;;;;;11.40;6.15;;;21.40;62.60;;;;;;5048707;28;20045;-57
2022/05/18 05:39:55;;;;;;;13.13;6.70;;;21.50;63.00;;;;;;5044756;28;20433;-57
2022/05/18 05:42:21;;;;;;;9.60;6.78;;;21.40;63.10;;;;;;5044527;28;20065;-57
2022/05/18 05:44:47;;;;;;;11.00;6.68;;;21.40;63.30;;;;;;5043301;28;20050;-57
2022/05/18 05:47:12;;;;;;;9.90;6.80;;;21.30;63.40;;;;;;5045067;28;20075;-57
2022/05/18 05:49:39;;;;;;;12.88;7.15;;;21.30;63.50;;;;;;5044068;28;20469;-57
2022/05/18 05:52:06;;;;;;;14.15;7.50;;;21.30;63.70;;;;;;5043609;28;20483;-57
2022/05/18 05:54:33;;;;;;;12.15;7.47;;;21.30;63.80;;;;;;5044332;28;20063;-57
2022/05/18 05:56:58;;;;;;;10.65;7.70;;;21.30;63.80;;;;;;5043860;28;20545;-57
2022/05/18 05:59:24;;;;;;;14.10;7.40;;;21.30;63.80;;;;;;5043291;28;20049;-56
2022/05/18 06:01:49;;;;;;;12.80;7.20;;;21.30;64.00;;;;;;5044270;28;20041;-57
2022/05/18 06:04:15;;;;;;;14.20;7.03;;;21.30;64.00;;;;;;5043901;28;20049;-57
2022/05/18 06:06:41;;;;;;;14.30;7.25;;;21.30;64.20;;;;;;5043618;28;20044;-57
2022/05/18 06:09:09;;;;;;;12.18;6.07;;;21.30;64.20;;;;;;5044596;28;20120;-57
2022/05/18 06:11:36;;;;;;;10.77;6.60;;;21.30;64.20;;;;;;5043934;28;20042;-57
2022/05/18 06:14:02;;;;;;;11.40;7.00;;;21.30;64.20;;;;;;5042794;28;20397;-57
2022/05/18 06:16:27;;;;;;;10.20;6.90;;;21.30;64.30;;;;;;5044025;28;20071;-57
2022/05/18 06:18:53;;;;;;;12.52;7.28;;;21.30;64.30;;;;;;5043087;28;20136;-57
2022/05/18 06:21:18;;;;;;;13.27;7.03;;;21.30;64.30;;;;;;5043764;28;20072;-57
2022/05/18 06:23:44;;;;;;;13.73;7.50;;;21.30;64.30;;;;;;5043998;28;20044;-57
2022/05/18 06:26:10;;;;;;;9.95;6.97;;;21.30;64.30;;;;;;5044875;28;20404;-57
2022/05/18 06:28:40;;;;;;;10.77;7.10;;;21.30;64.40;;;;;;5043780;28;20072;-57
2022/05/18 06:31:06;;;;;;;12.50;7.63;;;21.30;64.50;;;;;;5042079;28;20049;-57
2022/05/18 06:33:31;;;;;;;9.18;6.97;;;21.40;64.60;;;;;;5044430;28;20033;-57
2022/05/18 06:35:57;;;;;;;11.55;6.88;;;21.40;64.70;;;;;;5043450;28;20389;-57
2022/05/18 06:38:23;;;;;;;12.95;6.85;;;21.30;64.70;;;;;;5042070;28;20053;-57
2022/05/18 06:43:33;;;;;;;10.35;5.82;;;21.40;64.80;;;;;;5045120;28;20049;-56
2022/05/18 06:45:58;;;;;;;10.82;6.20;;;21.40;64.80;;;;;;5042079;28;20067;-57
2022/05/18 06:48:24;;;;;;;9.25;5.20;;;21.40;64.70;;;;;;5059664;28;20041;-56
2022/05/18 06:50:50;;;;;;;9.45;5.40;;;21.50;64.60;;;;;;5046824;28;20044;-57
2022/05/18 06:53:15;;;;;;;10.00;4.47;;;21.50;64.60;;;;;;5042936;28;20132;-57
2022/05/18 06:55:41;;;;;;;8.18;4.93;;;21.50;64.40;;;;;;5042655;28;20076;-57
2022/05/18 06:58:06;;;;;;;8.75;5.57;;;21.50;64.40;;;;;;5043708;28;20120;-57
2022/05/18 07:00:32;;;;;;;9.80;5.30;;;21.60;64.50;;;;;;5038300;28;20045;-56
2022/05/18 07:02:58;;;;;;;9.93;5.80;;;21.60;64.50;;;;;;5059688;28;20127;-56
2022/05/18 07:05:24;;;;;;;9.93;5.78;;;21.60;64.60;;;;;;5056710;28;20053;-55
2022/05/18 07:07:50;;;;;;;8.32;5.45;;;21.60;64.60;;;;;;5060787;28;20071;-54
2022/05/18 07:10:15;;;;;;;9.20;5.05;;;21.60;64.70;;;;;;5049562;28;20580;-55
2022/05/18 07:12:41;;;;;;;9.30;5.28;;;21.70;64.70;;;;;;5031498;28;20048;-55
2022/05/18 07:15:07;;;;;;;8.82;5.38;;;21.70;65.30;;;;;;5032378;28;20054;-55
2022/05/18 07:17:33;;;;;;;7.75;4.38;;;21.70;64.80;;;;;;5032865;28;20397;-55
2022/05/18 07:19:58;;;;;;;11.15;4.90;;;21.70;64.70;;;;;;5031765;28;20045;-55
2022/05/18 07:22:24;;;;;;;9.70;5.18;;;21.70;64.60;;;;;;5033026;28;20533;-55
2022/05/18 07:24:50;;;;;;;8.43;5.05;;;21.70;64.70;;;;;;5032953;28;20523;-55
2022/05/18 07:27:16;;;;;;;8.70;4.85;;;21.80;64.80;;;;;;5032409;28;20037;-55
2022/05/18 07:29:41;;;;;;;8.65;4.95;;;21.80;64.70;;;;;;5032407;28;20068;-55
2022/05/18 07:32:13;;;;;;;9.88;5.60;;;21.80;64.70;;;;;;5032941;28;20041;-55
2022/05/18 07:34:43;;;;;;;10.25;5.07;;;21.80;64.90;;;;;;5031925;28;20108;-57
2022/05/18 07:37:08;;;;;;;10.85;5.50;;;21.80;65.00;;;;;;5037154;28;20045;-54
2022/05/18 07:39:34;;;;;;;9.55;5.20;;;21.80;65.00;;;;;;5052608;28;20044;-52
2022/05/18 07:42:00;;;;;;;7.45;4.45;;;21.80;65.00;;;;;;5051642;28;20048;-52
2022/05/18 07:44:26;;;;;;;7.97;4.90;;;21.90;65.10;;;;;;5052765;28;20037;-52
2022/05/18 07:46:52;;;;;;;11.70;4.75;;;21.90;65.00;;;;;;5052443;28;20040;-52
2022/05/18 07:49:17;;;;;;;9.65;4.72;;;21.90;65.00;;;;;;5051960;28;20120;-53
2022/05/18 07:51:43;;;;;;;9.98;4.25;;;22.00;65.10;;;;;;5052461;28;20076;-53
2022/05/18 07:54:09;;;;;;;8.38;3.88;;;21.90;65.00;;;;;;5052107;28;20417;-53
2022/05/18 07:56:34;;;;;;;8.50;3.88;;;22.00;65.00;;;;;;5052550;28;20391;-52
2022/05/18 07:59:01;;;;;;;7.43;3.72;;;22.00;65.00;;;;;;5052159;28;20176;-52
2022/05/18 08:01:26;;;;;;;10.40;3.58;;;22.00;65.00;;;;;;5045759;28;20087;-52
2022/05/18 08:03:52;;;;;;;8.40;3.60;;;22.10;64.90;;;;;;5052043;28;20052;-52
2022/05/18 08:06:17;;;;;;;7.22;3.40;;;22.10;64.90;;;;;;5052582;28;20049;-52
2022/05/18 08:08:43;;;;;;;9.25;3.50;;;22.10;64.80;;;;;;5051352;28;20041;-52
2022/05/18 08:16:37;;;;;;;8.02;3.63;;;22.10;64.80;;;;;;5051214;28;20520;-52
2022/05/18 08:19:02;;;;;;;8.95;3.53;;;22.10;64.70;;;;;;5052177;28;20080;-52
2022/05/18 08:21:28;;;;;;;5.80;3.38;;;22.10;64.70;;;;;;5052447;28;20108;-52
2022/05/18 08:23:54;;;;;;;9.27;3.08;;;22.20;64.70;;;;;;5051405;28;20404;-52
2022/05/18 08:26:20;;;;;;;5.72;3.03;;;22.20;64.70;;;;;;5052264;28;20041;-53
2022/05/18 08:28:45;;;;;;;5.63;3.00;;;22.20;64.70;;;;;;5050837;28;20064;-54
2022/05/18 08:31:12;;;;;;;5.25;3.15;;;22.20;64.70;;;;;;5051457;28;20049;-52
2022/05/18 08:33:38;;;;;;;6.53;3.00;;;22.20;64.60;;;;;;5052443;28;20071;-52
2022/05/18 08:36:05;;;;;;;6.88;2.85;;;22.20;64.60;;;;;;5051968;28;20040;-51
2022/05/18 08:38:31;;;;;;;7.15;2.88;;;22.20;64.50;;;;;;5051142;28;20037;-51
2022/05/18 08:41:18;;;;;;;4.65;2.97;;;22.20;64.50;;;;;;5052019;28;20094;-52
2022/05/18 08:43:45;;;;;;;5.70;2.72;;;22.20;64.50;;;;;;5055226;28;20102;-52
2022/05/18 08:46:47;;;;;;;7.60;2.78;;;22.30;64.50;;;;;;5055974;28;20047;-52
2022/05/18 08:49:19;;;;;;;6.63;3.53;;;22.20;64.40;;;;;;5055904;28;20045;-51
2022/05/18 08:52:09;;;;;;;4.50;2.40;;;22.30;64.50;;;;;;5069963;28;20045;-53
2022/05/18 08:54:49;;;;;;;8.18;3.10;;;22.30;64.40;;;;;;5056014;28;20114;-52
2022/05/18 08:57:28;;;;;;;6.95;2.80;;;22.30;64.40;;;;;;5071403;28;20045;-52
2022/05/18 08:59:57;;;;;;;5.88;2.47;;;22.30;64.40;;;;;;5055198;28;20062;-52
2022/05/18 09:02:28;;;;;;;6.18;3.03;;;22.30;64.40;;;;;;5071455;28;20075;-51
2022/05/18 09:05:14;;;;;;;5.65;2.60;;;22.30;64.40;;;;;;5070466;28;20107;-52
2022/05/18 09:07:45;;;;;;;6.22;3.00;;;22.30;64.30;;;;;;5055341;28;20477;-53
2022/05/18 09:10:36;;;;;;;5.05;2.63;;;22.30;64.40;;;;;;5071209;28;20059;-52
2022/05/18 09:13:02;;;;;;;5.20;2.83;;;22.30;64.30;;;;;;5053037;28;20373;-52
2022/05/18 09:16:08;;;;;;;5.10;2.40;;;22.30;64.30;;;;;;5055343;28;20055;-51
2022/05/18 09:18:46;;;;;;;4.53;2.63;;;22.40;64.30;;;;;;5048125;28;20053;-53
2022/05/18 09:21:17;;;;;;;6.25;2.75;;;22.40;64.30;;;;;;5055775;28;20041;-53
2022/05/18 09:24:04;;;;;;;5.82;2.67;;;22.40;64.40;;;;;;5054931;28;20060;-52
2022/05/18 09:26:45;;;;;;;4.43;2.70;;;22.40;64.30;;;;;;5069859;28;20056;-52
2022/05/18 09:29:51;;;;;;;5.78;2.55;;;22.40;64.30;;;;;;5055592;28;20048;-52
2022/05/18 09:32:21;;;;;;;3.67;2.77;;;22.40;64.30;;;;;;5033067;28;20042;-53
2022/05/18 09:35:12;;;;;;;4.50;2.20;;;22.40;64.30;;;;;;5032252;28;20041;-53
2022/05/18 09:37:45;;;;;;;5.93;2.85;;;22.40;64.30;;;;;;5032696;28;20060;-54
2022/05/18 09:40:19;;;;;;;5.57;3.15;;;22.40;64.10;;;;;;5054449;28;20045;-52
2022/05/18 09:42:49;;;;;;;5.10;2.50;;;22.40;64.00;;;;;;5055094;28;20041;-52
2022/05/18 09:45:17;;;;;;;5.13;2.67;;;22.50;64.00;;;;;;5070623;28;20045;-53
2022/05/18 09:47:59;;;;;;;5.38;2.70;;;22.50;64.00;;;;;;5069175;28;20426;-52
2022/05/18 09:50:26;;;;;;;5.97;3.80;;;22.50;64.00;;;;;;5070676;28;20052;-52
2022/05/18 09:52:51;;;;;;;4.32;2.40;;;22.50;64.00;;;;;;5054243;28;20106;-53
2022/05/18 09:55:19;;;;;;;4.32;2.60;;;22.50;63.90;;;;;;5054258;28;20543;-51
2022/05/18 09:58:03;;;;;;;5.77;3.43;;;22.50;64.00;;;;;;5045607;28;20040;-52
2022/05/18 10:00:31;;;;;;;5.15;2.83;;;22.50;64.00;;;;;;5059306;28;20042;-53
2022/05/18 10:08:34;;;;;;;5.32;3.08;;;22.60;64.10;;;;;;5052946;28;20049;-52
2022/05/18 10:11:05;;;;;;;5.75;2.80;;;22.60;64.10;;;;;;5053923;28;20043;-52
2022/05/18 10:13:33;;;;;;;4.13;2.67;;;22.60;64.00;;;;;;5054735;28;20040;-52
2022/05/18 10:16:14;;;;;;;5.70;2.80;;;22.60;64.00;;;;;;5053251;28;20114;-52
2022/05/18 10:18:44;;;;;;;4.45;2.80;;;22.60;64.00;;;;;;5053788;28;20456;-53
2022/05/18 10:21:12;;;;;;;6.38;2.95;;;22.60;64.00;;;;;;5053337;28;20088;-52
2022/05/18 10:24:04;;;;;;;5.43;2.50;;;22.60;64.00;;;;;;5053601;28;20041;-53
2022/05/18 10:26:41;;;;;;;6.43;2.95;;;22.60;64.00;;;;;;5043625;28;20064;-52
2022/05/18 10:29:21;;;;;;;4.50;2.88;;;22.70;64.10;;;;;;5052427;28;20044;-52
2022/05/18 10:32:07;;;;;;;4.57;2.97;;;22.70;64.10;;;;;;5054012;28;20045;-52
2022/05/18 10:34:41;;;;;;;5.30;3.00;;;22.70;64.10;;;;;;5053984;28;20404;-53
2022/05/18 10:37:08;;;;;;;5.18;2.60;;;22.70;64.10;;;;;;5053684;28;20049;-52
2022/05/18 10:39:37;;;;;;;5.22;2.50;;;22.70;64.10;;;;;;5052522;28;20053;-52
2022/05/18 10:42:12;;;;;;;5.40;2.60;;;22.70;64.10;;;;;;5053159;28;20037;-51
2022/05/18 10:44:38;;;;;;;7.50;2.70;;;22.70;64.10;;;;;;5052093;28;20048;-52
2022/05/18 10:47:12;;;;;;;3.85;2.70;;;22.70;64.10;;;;;;5053726;28;20041;-52
2022/05/18 10:49:37;;;;;;;6.13;2.65;;;22.70;64.00;;;;;;5052575;28;20056;-53
2022/05/18 10:52:09;;;;;;;5.03;2.88;;;22.70;64.10;;;;;;5052508;28;20033;-53
2022/05/18 10:54:34;;;;;;;8.00;3.25;;;22.70;64.10;;;;;;5053832;28;20049;-53
2022/05/18 10:57:15;;;;;;;8.82;2.90;;;22.70;64.10;;;;;;5052429;28;20091;-50
2022/05/18 10:59:48;;;;;;;7.40;3.03;;;22.70;64.20;;;;;;5046672;28;20037;-52
2022/05/18 11:02:21;;;;;;;6.70;2.80;;;22.70;64.30;;;;;;5051560;28;20073;-53
2022/05/18 11:05:03;;;;;;;5.88;3.05;;;22.70;64.20;;;;;;5063595;28;20084;-53
2022/05/18 11:07:29;;;;;;;6.88;3.08;;;22.80;64.40;;;;;;5047362;28;20504;-52
2022/05/18 11:09:55;;;;;;;4.63;2.90;;;22.80;64.40;;;;;;5053026;28;20090;-52
2022/05/18 11:12:59;;;;;;;5.60;2.80;;;22.80;64.60;;;;;;5052522;28;20049;-52
2022/05/18 11:15:27;;;;;;;6.13;2.75;;;22.80;64.70;;;;;;5044500;28;20080;-53
2022/05/18 11:18:14;;;;;;;7.18;2.95;;;22.80;64.70;;;;;;5035794;28;20064;-52
2022/05/18 11:21:15;;;;;;;6.75;2.97;;;22.80;64.70;;;;;;5048436;28;20045;-53
2022/05/18 11:23:47;;;;;;;4.82;2.90;;;22.80;64.60;;;;;;5031889;28;20107;-51
2022/05/18 11:26:51;;;;;;;5.22;2.70;;;22.80;64.70;;;;;;5037316;28;20044;-53
2022/05/18 11:29:41;;;;;;;6.00;2.63;;;22.80;64.70;;;;;;5041465;28;20053;-53
2022/05/18 11:32:15;;;;;;;8.40;3.15;;;22.80;64.70;;;;;;5043786;28;20037;-53
2022/05/18 11:34:54;;;;;;;4.90;3.03;;;22.90;64.70;;;;;;5043598;28;20068;-54
2022/05/18 11:37:57;;;;;;;7.53;3.10;;;22.90;64.90;;;;;;5058478;28;20134;-54
2022/05/18 11:41:10;;;;;;;9.90;2.70;;;22.90;64.80;;;;;;5040385;28;20080;-51
2022/05/18 11:44:11;;;;;;;7.63;2.85;;;22.90;64.90;;;;;;5029686;28;20405;-54
2022/05/18 11:47:29;;;;;;;5.32;2.92;;;22.90;65.00;;;;;;5032116;28;20045;-54
2022/05/18 11:50:15;;;;;;;5.60;2.92;;;22.90;65.00;;;;;;5020359;28;20099;-54
2022/05/18 11:52:54;;;;;;;6.35;2.80;;;23.00;65.10;;;;;;5047576;28;20464;-54
2022/05/18 11:55:33;;;;;;;6.68;2.50;;;23.00;65.10;;;;;;5047429;28;20045;-55
2022/05/18 11:58:01;;;;;;;7.40;2.83;;;23.00;65.10;;;;;;5047014;28;20060;-54
2022/05/18 12:00:50;;;;;;;5.75;2.80;;;23.00;65.10;;;;;;5047233;28;20116;-54
2022/05/18 12:03:38;;;;;;;5.80;2.67;;;23.00;65.10;;;;;;5032659;28;20049;-54
2022/05/18 12:06:10;;;;;;;5.88;2.60;;;23.00;65.00;;;;;;5031310;28;20060;-54
2022/05/18 12:08:46;;;;;;;4.85;2.80;;;23.00;65.00;;;;;;5031568;28;20374;-54
2022/05/18 12:11:49;;;;;;;6.82;2.80;;;23.00;65.70;;;;;;5047733;28;20053;-54
2022/05/18 12:14:32;;;;;;;5.60;2.58;;;23.00;65.00;;;;;;5032366;28;20141;-54
2022/05/18 12:17:02;;;;;;;4.00;2.85;;;23.00;65.00;;;;;;5030509;28;20543;-55
2022/05/18 12:19:33;;;;;;;4.55;2.63;;;23.00;64.90;;;;;;5031949;28;20084;-54
2022/05/18 12:22:09;;;;;;;5.80;3.25;;;23.10;65.00;;;;;;5029557;28;20045;-54
2022/05/18 12:24:36;;;;;;;4.35;2.63;;;23.10;64.90;;;;;;5015767;28;20057;-54
2022/05/18 12:27:01;;;;;;;4.40;2.65;;;23.10;64.80;;;;;;5014404;28;20128;-54
2022/05/18 12:29:27;;;;;;;4.50;2.65;;;23.10;64.80;;;;;;5031095;28;20400;-54
2022/05/18 12:31:54;;;;;;;5.28;2.42;;;23.10;64.70;;;;;;5030377;28;20059;-52
2022/05/18 12:34:35;;;;;;;3.95;2.33;;;23.10;64.70;;;;;;5031084;28;20188;-54
2022/05/18 12:37:13;;;;;;;4.65;2.38;;;23.20;64.70;;;;;;5031239;28;20052;-55
2022/05/18 12:39:46;;;;;;;7.43;2.65;;;23.20;64.70;;;;;;5032073;28;20056;-55
2022/05/18 12:42:15;;;;;;;7.68;2.40;;;23.20;64.70;;;;;;5032165;28;20053;-53
2022/05/18 12:44:52;;;;;;;4.38;2.60;;;23.20;64.70;;;;;;5030123;28;20046;-54
2022/05/18 12:47:28;;;;;;;7.25;3.00;;;23.20;64.70;;;;;;5032186;28;20095;-52
2022/05/18 12:49:57;;;;;;;5.65;2.78;;;23.20;64.80;;;;;;5037749;28;20044;-53
2022/05/18 12:52:55;;;;;;;7.10;3.17;;;23.20;64.80;;;;;;5042828;28;20047;-53
2022/05/18 12:55:33;;;;;;;4.25;2.30;;;23.20;64.90;;;;;;5058149;28;20047;-52
2022/05/18 12:58:11;;;;;;;5.85;2.63;;;23.20;65.00;;;;;;5054819;28;20044;-51
2022/05/18 13:00:44;;;;;;;6.35;2.40;;;23.20;65.00;;;;;;5040933;28;20519;-53
2022/05/18 13:03:10;;;;;;;4.53;2.17;;;23.20;65.00;;;;;;5039856;28;20045;-53
2022/05/18 13:05:36;;;;;;;5.50;2.40;;;23.20;65.00;;;;;;5039226;28;20052;-50
2022/05/18 13:08:20;;;;;;;7.00;2.50;;;23.30;65.00;;;;;;5042406;28;20077;-51
2022/05/18 13:11:10;;;;;;;6.07;2.45;;;23.30;65.00;;;;;;5040845;28;20052;-52
2022/05/18 13:14:00;;;;;;;5.65;2.40;;;23.30;64.90;;;;;;5041898;28;20108;-51
2022/05/18 13:16:54;;;;;;;8.13;2.55;;;23.30;64.80;;;;;;5042126;28;20353;-52
2022/05/18 13:19:24;;;;;;;6.18;2.45;;;23.40;64.70;;;;;;5036662;28;20080;-52